Time;durP1;ratioP1;P1;durP2;ratioP2;P2;SDS_P1;SDS_P2;PMS_P1;PMS_P2;Temp;Humidity;BMP_temperature;BMP_pressure;BME280_temperature;BME280_humidity;BME280_pressure;Samples;Min_cycle;Max_cycle;Signal;HPM_P1;HPM_P2
2021/07/08 00:01:27;;;;;;;9.18;6.50;;;;;;;17.92;80.62;96088.63;1787662;80;20962;-59
2021/07/08 00:03:54;;;;;;;13.53;7.80;;;;;;;17.89;80.65;96090.95;1787656;80;21005;-59
2021/07/08 00:06:21;;;;;;;9.23;7.28;;;;;;;17.83;81.21;96096.98;1787381;80;21021;-59
2021/07/08 00:08:50;;;;;;;9.78;8.20;;;;;;;17.84;80.60;96093.38;1787745;80;21001;-59
2021/07/08 00:11:16;;;;;;;9.05;7.25;;;;;;;17.79;80.66;96096.22;1787769;80;21052;-59
2021/07/08 00:13:45;;;;;;;10.98;7.47;;;;;;;17.72;80.96;96088.04;1751777;80;21575;-59
2021/07/08 00:16:11;;;;;;;9.65;7.50;;;;;;;17.78;81.51;96095.80;1787531;80;21554;-59
2021/07/08 00:18:38;;;;;;;11.95;7.47;;;;;;;17.78;81.19;96098.47;1787456;80;21013;-59
2021/07/08 00:21:04;;;;;;;7.65;6.85;;;;;;;17.77;81.10;96096.73;1787179;80;21025;-59
2021/07/08 00:23:31;;;;;;;13.13;7.53;;;;;;;17.82;80.86;96101.94;1787861;80;21005;-59
2021/07/08 00:25:58;;;;;;;8.70;6.42;;;;;;;17.79;80.38;96096.22;1787729;80;21586;-59
2021/07/08 00:28:24;;;;;;;12.80;7.50;;;;;;;17.78;79.88;96094.94;1787296;80;21017;-59
2021/07/08 00:30:51;;;;;;;8.55;7.00;;;;;;;17.73;80.01;96091.97;1787442;80;21014;-60
2021/07/08 00:33:20;;;;;;;9.65;6.87;;;;;;;17.76;80.22;96095.45;1787805;80;20962;-59
2021/07/08 00:35:48;;;;;;;8.70;6.90;;;;;;;17.77;80.28;96097.20;1787498;80;21032;-59
2021/07/08 00:38:15;;;;;;;8.85;7.95;;;;;;;17.77;80.50;96092.73;1787843;80;21471;-59
2021/07/08 00:40:42;;;;;;;13.95;7.45;;;;;;;17.78;80.39;96098.94;1787149;80;21515;-59
2021/07/08 00:43:09;;;;;;;8.23;7.42;;;;;;;17.79;80.01;96093.55;1787432;80;21049;-59
2021/07/08 00:45:37;;;;;;;8.50;7.40;;;;;;;17.74;80.66;96094.20;1782455;80;21048;-59
2021/07/08 00:48:06;;;;;;;8.43;7.62;;;;;;;17.71;80.65;96099.63;1787390;80;21013;-59
2021/07/08 00:50:42;;;;;;;11.00;8.05;;;;;;;17.65;80.54;96094.06;1787411;80;21468;-59
2021/07/08 00:53:06;;;;;;;10.30;8.05;;;;;;;17.65;80.30;96094.06;1787124;80;21041;-59
2021/07/08 00:55:32;;;;;;;9.73;7.30;;;;;;;17.68;80.68;96093.94;1787324;80;20970;-59
2021/07/08 00:57:59;;;;;;;10.58;7.50;;;;;;;17.66;80.23;96098.46;1787433;80;21045;-59
2021/07/08 01:00:34;;;;;;;11.18;8.18;;;;;;;17.62;80.38;96094.66;1787769;80;21032;-59
2021/07/08 01:03:03;;;;;;;10.70;8.20;;;;;;;17.64;80.41;96095.01;1787536;80;21005;-59
2021/07/08 01:05:33;;;;;;;8.48;7.30;;;;;;;17.73;80.46;96099.11;1787683;80;21479;-59
2021/07/08 01:08:00;;;;;;;8.50;7.45;;;;;;;17.68;79.67;96101.95;1787633;80;21013;-59
2021/07/08 01:10:28;;;;;;;11.40;8.50;;;;;;;17.58;80.70;96097.03;1787431;80;21005;-59
2021/07/08 01:12:55;;;;;;;13.38;7.28;;;;;;;17.56;80.37;96095.74;1787307;80;21535;-59
2021/07/08 01:15:21;;;;;;;8.90;7.35;;;;;;;17.53;80.25;96094.53;1787587;80;21020;-59
2021/07/08 01:17:50;;;;;;;11.03;7.90;;;;;;;17.50;80.98;96093.32;1787048;80;21032;-59
2021/07/08 01:20:19;;;;;;;9.10;7.25;;;;;;;17.49;80.94;96095.59;1787752;80;21024;-59
2021/07/08 01:22:48;;;;;;;9.85;6.92;;;;;;;17.51;80.73;96098.61;1787412;80;21020;-59
2021/07/08 01:25:17;;;;;;;9.28;7.53;;;;;;;17.44;81.20;96097.57;1787678;80;20985;-59
2021/07/08 01:27:45;;;;;;;9.93;8.25;;;;;;;17.41;80.87;96090.98;1787490;80;21598;-59
2021/07/08 01:30:14;;;;;;;10.95;7.35;;;;;;;17.50;80.92;96088.84;1787345;80;21068;-59
2021/07/08 01:32:40;;;;;;;6.90;6.12;;;;;;;17.57;80.31;96090.83;1787573;80;21041;-59
2021/07/08 01:35:10;;;;;;;9.30;8.05;;;;;;;17.59;80.03;96088.98;1787305;80;21014;-59
2021/07/08 01:37:37;;;;;;;9.80;7.60;;;;;;;17.54;79.69;96093.63;1787602;80;21459;-59
2021/07/08 01:40:07;;;;;;;8.73;7.70;;;;;;;17.48;79.68;96091.17;1787307;80;21511;-59
2021/07/08 01:42:34;;;;;;;7.35;6.65;;;;;;;17.39;79.90;96088.87;1787657;80;20977;-59
2021/07/08 01:45:02;;;;;;;12.07;7.95;;;;;;;17.35;80.55;96085.90;1751858;80;21029;-59
2021/07/08 01:47:29;;;;;;;9.20;7.33;;;;;;;17.26;81.40;96083.98;1787540;80;21147;-59
2021/07/08 01:49:55;;;;;;;9.03;7.37;;;;;;;17.29;81.62;96091.87;1787626;80;21029;-59
2021/07/08 01:52:22;;;;;;;9.00;7.12;;;;;;;17.21;80.91;96095.73;1787608;80;21009;-59
2021/07/08 01:54:49;;;;;;;7.97;7.22;;;;;;;17.21;81.13;96091.73;1787296;80;21522;-59
2021/07/08 01:57:16;;;;;;;8.63;7.33;;;;;;;17.14;81.51;96093.77;1787243;80;21068;-59
2021/07/08 01:59:42;;;;;;;8.95;7.75;;;;;;;17.20;81.08;96098.00;1787203;80;21005;-59
2021/07/08 02:02:09;;;;;;;9.45;7.00;;;;;;;17.18;80.67;96098.52;1787451;80;21049;-58
2021/07/08 02:04:36;;;;;;;9.23;7.33;;;;;;;17.20;80.55;96099.33;1787284;80;21093;-59
2021/07/08 02:07:03;;;;;;;8.85;7.20;;;;;;;17.21;80.76;96101.95;1787574;80;21017;-59
2021/07/08 02:09:30;;;;;;;8.40;7.03;;;;;;;17.11;80.52;96100.55;1787359;80;21064;-59
2021/07/08 02:12:01;;;;;;;8.88;7.90;;;;;;;17.03;81.64;96099.94;1787315;80;21013;-59
2021/07/08 02:14:29;;;;;;;10.63;7.92;;;;;;;17.03;81.14;96107.93;1787595;80;21033;-59
2021/07/08 02:16:56;;;;;;;13.40;8.73;;;;;;;17.07;80.87;96106.44;1787193;80;21072;-59
2021/07/08 02:19:24;;;;;;;11.85;8.68;;;;;;;17.11;80.94;96101.89;1787190;80;21009;-59
2021/07/08 02:21:50;;;;;;;10.20;8.08;;;;;;;17.18;81.16;96111.84;1787327;80;21018;-59
2021/07/08 02:24:17;;;;;;;9.10;8.20;;;;;;;17.14;80.92;96108.91;1787775;80;21010;-59
2021/07/08 02:26:44;;;;;;;12.03;8.40;;;;;;;17.04;81.44;96114.55;1787162;80;21040;-59
2021/07/08 02:29:12;;;;;;;10.53;8.08;;;;;;;17.03;81.14;96114.59;1787313;80;21554;-59
2021/07/08 02:31:38;;;;;;;9.38;7.60;;;;;;;17.02;81.42;96115.53;1787694;80;21049;-60
2021/07/08 02:34:05;;;;;;;9.60;7.70;;;;;;;17.01;82.04;96120.00;1787693;80;20977;-59
2021/07/08 02:36:32;;;;;;;11.53;7.90;;;;;;;16.98;81.72;96115.22;1787851;80;21136;-59
2021/07/08 02:38:58;;;;;;;9.18;7.72;;;;;;;16.98;81.39;96108.09;1787287;80;21036;-59
2021/07/08 02:41:25;;;;;;;9.70;8.18;;;;;;;17.03;81.41;96107.93;1787219;80;21034;-59
2021/07/08 02:43:51;;;;;;;9.15;8.13;;;;;;;17.05;80.95;96106.09;1787285;80;21006;-59
2021/07/08 02:46:18;;;;;;;9.75;6.50;;;;;;;17.02;81.00;96104.41;1787318;80;21002;-59
2021/07/08 02:48:44;;;;;;;11.35;7.80;;;;;;;17.04;81.07;96111.02;1787028;80;21034;-59
2021/07/08 02:51:11;;;;;;;11.35;8.28;;;;;;;16.94;80.63;96109.61;1787594;80;21045;-59
2021/07/08 02:53:37;;;;;;;7.92;6.85;;;;;;;16.96;81.08;96111.73;1752203;80;21444;-59
2021/07/08 02:56:04;;;;;;;8.33;7.53;;;;;;;16.89;81.43;96108.44;1787390;80;21020;-58
2021/07/08 02:58:31;;;;;;;10.53;8.23;;;;;;;16.85;81.66;96119.65;1787668;80;20962;-59
2021/07/08 03:00:57;;;;;;;12.70;8.40;;;;;;;16.95;81.71;96119.34;1787659;80;20966;-59
2021/07/08 03:03:24;;;;;;;8.95;6.85;;;;;;;17.06;81.49;96114.52;1787643;80;21476;-59
2021/07/08 03:05:50;;;;;;;9.88;6.80;;;;;;;17.13;81.01;96116.47;1787567;80;21002;-59
2021/07/08 03:08:17;;;;;;;8.18;7.00;;;;;;;17.04;80.63;96119.89;1787523;80;21001;-59
2021/07/08 03:10:43;;;;;;;8.73;7.08;;;;;;;16.94;80.95;96126.47;1787564;80;21014;-59
2021/07/08 03:13:10;;;;;;;12.60;8.03;;;;;;;16.87;81.64;96128.47;1787404;80;21017;-59
2021/07/08 03:15:37;;;;;;;10.60;7.87;;;;;;;16.81;81.70;96129.16;1787283;80;21025;-59
2021/07/08 03:18:04;;;;;;;9.33;8.33;;;;;;;16.82;82.11;96125.56;1787685;80;21045;-59
2021/07/08 03:20:37;;;;;;;9.53;7.75;;;;;;;16.84;82.04;96130.38;1787722;80;21005;-59
2021/07/08 03:23:05;;;;;;;10.67;7.50;;;;;;;16.93;82.62;96122.52;1787645;80;21009;-59
2021/07/08 03:25:33;;;;;;;9.53;8.00;;;;;;;16.96;82.41;96133.06;1787701;80;21010;-59
2021/07/08 03:28:01;;;;;;;8.55;7.60;;;;;;;17.03;82.64;96122.59;1787693;80;21052;-59
2021/07/08 03:30:30;;;;;;;9.80;8.33;;;;;;;17.07;83.04;96128.23;1787664;80;21017;-59
2021/07/08 03:32:59;;;;;;;8.90;7.72;;;;;;;17.14;82.75;96128.43;1787561;80;21511;-59
2021/07/08 03:35:30;;;;;;;8.90;7.90;;;;;;;17.28;82.54;96128.78;1787723;80;21001;-59
2021/07/08 03:37:58;;;;;;;11.40;7.95;;;;;;;17.39;82.26;96123.55;1787603;80;21016;-59
2021/07/08 03:40:27;;;;;;;16.30;8.50;;;;;;;17.42;82.19;96121.63;1787763;80;20993;-58
2021/07/08 03:42:53;;;;;;;13.60;9.75;;;;;;;17.51;82.29;96125.29;1787462;80;21021;-59
2021/07/08 03:45:23;;;;;;;9.43;8.40;;;;;;;17.55;82.52;96123.36;1788025;80;21009;-59
2021/07/08 03:47:50;;;;;;;9.98;8.30;;;;;;;17.61;82.06;96127.13;1787565;80;20974;-59
2021/07/08 03:50:17;;;;;;;8.03;7.22;;;;;;;17.64;82.34;96129.70;1787382;80;21551;-59
2021/07/08 03:52:45;;;;;;;9.03;7.62;;;;;;;17.74;82.16;96137.77;1787909;80;20998;-59
2021/07/08 03:55:16;;;;;;;10.35;8.73;;;;;;;17.78;81.72;96133.63;1787658;80;21480;-59
2021/07/08 03:57:52;;;;;;;9.28;8.05;;;;;;;17.83;81.74;96139.22;1787454;80;21496;-59
2021/07/08 04:00:27;;;;;;;8.70;7.42;;;;;;;17.90;81.44;96140.73;1787644;80;21492;-59
2021/07/08 04:02:55;;;;;;;9.90;8.90;;;;;;;17.96;81.63;96139.63;1787697;80;21057;-58
2021/07/08 04:05:22;;;;;;;10.58;8.53;;;;;;;18.05;81.96;96145.08;1787577;80;20993;-59
2021/07/08 04:07:49;;;;;;;9.55;8.53;;;;;;;18.15;81.95;96143.31;1787692;80;20980;-59
2021/07/08 04:10:16;;;;;;;11.03;8.70;;;;;;;18.28;81.62;96144.16;1787965;80;20970;-59
2021/07/08 04:12:44;;;;;;;11.03;8.98;;;;;;;18.34;81.53;96147.91;1787212;80;21047;-59
2021/07/08 04:15:11;;;;;;;11.38;9.30;;;;;;;18.48;81.48;96153.58;1787413;80;21037;-59
2021/07/08 04:17:38;;;;;;;11.45;7.85;;;;;;;18.52;81.07;96150.30;1787558;80;21483;-59
2021/07/08 04:20:10;;;;;;;10.00;7.75;;;;;;;18.57;81.60;96156.33;1787620;80;21045;-59
2021/07/08 04:22:37;;;;;;;12.60;8.98;;;;;;;18.62;81.49;96153.47;1787979;80;21056;-59
2021/07/08 04:25:07;;;;;;;9.88;8.78;;;;;;;18.66;81.23;96148.41;1787253;80;21053;-59
2021/07/08 04:27:35;;;;;;;10.30;9.20;;;;;;;18.70;80.66;96148.22;1787811;80;20934;-59
2021/07/08 04:30:06;;;;;;;13.75;9.20;;;;;;;18.80;80.74;96153.62;1787763;80;21040;-59
2021/07/08 04:32:34;;;;;;;11.60;9.70;;;;;;;19.08;80.31;96153.77;1787378;80;20954;-59
2021/07/08 04:35:01;;;;;;;14.70;9.40;;;;;;;19.08;80.31;96153.77;1787641;80;21061;-59
2021/07/08 04:37:28;;;;;;;10.88;9.08;;;;;;;19.18;79.90;96146.23;1787552;80;21045;-59
2021/07/08 04:39:55;;;;;;;9.75;8.68;;;;;;;19.39;79.56;96152.42;1787160;80;21020;-59
2021/07/08 04:42:22;;;;;;;10.40;9.38;;;;;;;19.59;79.25;96150.20;1787613;80;21052;-59
2021/07/08 04:44:49;;;;;;;12.28;8.98;;;;;;;19.78;79.22;96147.12;1787770;80;21057;-59
2021/07/08 04:47:15;;;;;;;11.00;8.93;;;;;;;19.94;78.01;96144.59;1787765;80;20938;-59
2021/07/08 04:49:42;;;;;;;12.00;9.43;;;;;;;20.03;77.49;96140.15;1787810;80;21070;-59
2021/07/08 04:52:11;;;;;;;10.70;9.60;;;;;;;20.18;77.37;96147.90;1787686;80;21013;-59
2021/07/08 04:54:38;;;;;;;11.43;8.80;;;;;;;20.29;77.42;96147.41;1787184;80;21503;-59
2021/07/08 04:57:04;;;;;;;10.58;9.45;;;;;;;20.41;77.13;96148.61;1787748;80;20994;-59
2021/07/08 04:59:32;;;;;;;11.85;8.73;;;;;;;20.54;76.91;96153.78;1787733;80;20998;-59
2021/07/08 05:01:58;;;;;;;10.95;9.75;;;;;;;20.67;76.64;96152.27;1787478;80;21033;-59
2021/07/08 05:04:25;;;;;;;10.75;9.75;;;;;;;20.78;76.12;96157.08;1787783;80;21077;-59
2021/07/08 05:06:52;;;;;;;11.35;10.00;;;;;;;20.88;75.50;96165.54;1787878;80;21005;-58
2021/07/08 05:09:18;;;;;;;12.37;9.80;;;;;;;20.90;74.87;96165.86;1787630;80;21010;-59
2021/07/08 05:11:44;;;;;;;12.23;9.70;;;;;;;20.92;74.83;96167.14;1787367;80;20990;-59
2021/07/08 05:14:11;;;;;;;10.63;9.48;;;;;;;20.97;74.82;96173.13;1787506;80;20966;-60
2021/07/08 05:16:37;;;;;;;11.80;9.95;;;;;;;21.04;74.83;96170.55;1787518;80;21002;-59
2021/07/08 05:19:04;;;;;;;14.13;10.53;;;;;;;21.15;74.84;96173.53;1787667;80;21013;-59
2021/07/08 05:21:31;;;;;;;12.60;9.60;;;;;;;21.25;74.59;96166.36;1787413;80;21749;-59
2021/07/08 05:24:00;;;;;;;11.28;9.88;;;;;;;21.33;74.51;96166.82;1787297;80;21057;-59
2021/07/08 05:26:27;;;;;;;11.20;10.10;;;;;;;21.36;74.42;96163.48;1787896;80;21036;-59
2021/07/08 05:28:54;;;;;;;11.28;10.18;;;;;;;21.46;74.21;96167.08;1787596;80;21444;-59
2021/07/08 05:31:21;;;;;;;12.35;10.75;;;;;;;21.58;74.19;96169.12;1787588;80;21018;-59
2021/07/08 05:33:47;;;;;;;13.20;9.80;;;;;;;21.70;74.35;96175.67;1787206;80;21005;-59
2021/07/08 05:36:14;;;;;;;10.20;9.13;;;;;;;21.80;73.91;96168.37;1787138;80;21031;-59
2021/07/08 05:38:41;;;;;;;9.58;8.60;;;;;;;21.93;73.04;96173.08;1787791;80;21010;-59
2021/07/08 05:41:07;;;;;;;10.90;9.35;;;;;;;21.99;72.08;96171.39;1787724;80;21519;-59
2021/07/08 05:43:33;;;;;;;15.72;10.72;;;;;;;22.11;72.65;96177.92;1787124;80;21049;-60
2021/07/08 05:46:00;;;;;;;14.47;9.45;;;;;;;22.27;72.69;96176.13;1787295;80;21041;-59
2021/07/08 05:48:26;;;;;;;12.63;10.20;;;;;;;22.43;72.64;96178.86;1787564;80;21546;-59
2021/07/08 05:50:53;;;;;;;12.70;10.00;;;;;;;22.54;71.48;96181.79;1789249;80;21040;-59
2021/07/08 05:53:20;;;;;;;11.22;10.03;;;;;;;22.62;70.78;96182.22;1796368;80;21017;-59
2021/07/08 05:55:46;;;;;;;13.75;9.03;;;;;;;22.74;69.94;96183.83;1796511;79;21064;-59
2021/07/08 05:58:13;;;;;;;12.65;9.93;;;;;;;22.84;69.66;96185.89;1796165;80;21048;-59
2021/07/08 06:00:39;;;;;;;14.63;10.53;;;;;;;22.95;69.87;96187.95;1796062;80;21045;-59
2021/07/08 06:03:08;;;;;;;12.15;10.30;;;;;;;23.04;69.81;96192.84;1795648;79;21123;-60
2021/07/08 06:05:34;;;;;;;18.30;10.45;;;;;;;23.14;69.38;96193.17;1795679;80;20977;-59
2021/07/08 06:08:01;;;;;;;11.05;9.95;;;;;;;23.24;68.88;96188.98;1795928;80;21013;-59
2021/07/08 06:10:27;;;;;;;14.65;11.28;;;;;;;23.29;68.92;96180.63;1795878;79;21017;-59
2021/07/08 06:12:54;;;;;;;15.15;11.63;;;;;;;23.33;67.58;96171.39;1795916;80;21057;-59
2021/07/08 06:15:22;;;;;;;12.20;11.00;;;;;;;23.46;68.41;96181.84;1796251;79;21005;-59
2021/07/08 06:17:48;;;;;;;12.75;11.48;;;;;;;23.56;68.11;96176.73;1795787;80;21041;-59
2021/07/08 06:20:16;;;;;;;13.32;11.43;;;;;;;23.68;67.98;96181.86;1796293;80;21041;-59
2021/07/08 06:22:44;;;;;;;14.85;11.60;;;;;;;23.77;67.92;96182.68;1796232;80;21009;-59
2021/07/08 06:25:13;;;;;;;20.12;10.88;;;;;;;23.84;67.20;96181.80;1795946;80;20994;-59
2021/07/08 06:27:40;;;;;;;13.22;11.83;;;;;;;23.91;67.40;96181.81;1796311;80;20965;-59
2021/07/08 06:30:08;;;;;;;17.02;11.25;;;;;;;23.96;67.01;96181.94;1796294;79;21522;-59
2021/07/08 06:32:35;;;;;;;12.80;11.50;;;;;;;23.98;66.42;96179.98;1796280;80;21005;-59
2021/07/08 06:35:07;;;;;;;13.25;11.85;;;;;;;24.07;67.04;96187.13;1796304;80;20965;-59
2021/07/08 06:37:35;;;;;;;12.73;11.03;;;;;;;24.18;67.04;96188.17;1796970;80;21021;-59
2021/07/08 06:40:03;;;;;;;12.33;11.08;;;;;;;24.16;65.36;96188.74;1796217;80;21028;-59
2021/07/08 06:42:29;;;;;;;12.37;11.25;;;;;;;24.16;65.75;96193.27;1796144;80;21009;-59
2021/07/08 06:44:56;;;;;;;13.10;11.08;;;;;;;24.23;66.03;96197.81;1796557;80;21024;-59
2021/07/08 06:47:26;;;;;;;13.35;11.65;;;;;;;24.30;65.87;96196.46;1795679;80;21016;-59
2021/07/08 06:49:51;;;;;;;17.07;11.30;;;;;;;24.33;65.84;96202.52;1796412;80;21001;-59
2021/07/08 06:52:17;;;;;;;13.70;11.68;;;;;;;24.43;66.16;96200.09;1796349;80;21061;-59
2021/07/08 06:54:43;;;;;;;15.20;11.08;;;;;;;24.55;66.15;96199.34;1796438;79;21518;-59
2021/07/08 06:57:11;;;;;;;17.02;11.83;;;;;;;24.65;66.70;96194.22;1796643;79;21063;-59
2021/07/08 06:59:38;;;;;;;12.73;11.43;;;;;;;24.76;66.23;96206.52;1796339;80;21044;-59
2021/07/08 07:02:05;;;;;;;14.70;11.10;;;;;;;24.87;65.91;96198.20;1796351;79;21036;-59
2021/07/08 07:04:31;;;;;;;12.68;11.38;;;;;;;24.94;65.90;96199.53;1796340;80;21491;-59
2021/07/08 07:06:58;;;;;;;12.70;11.43;;;;;;;25.00;65.38;96205.89;1796304;80;21464;-59
2021/07/08 07:09:24;;;;;;;14.83;11.08;;;;;;;25.00;64.50;96195.09;1796098;79;21037;-59
2021/07/08 07:11:51;;;;;;;14.98;11.45;;;;;;;25.06;65.14;96194.67;1796041;80;21010;-59
2021/07/08 07:14:17;;;;;;;13.00;11.70;;;;;;;25.18;65.62;96193.89;1796196;80;21025;-59
2021/07/08 07:16:44;;;;;;;15.78;11.90;;;;;;;25.24;65.31;96196.66;1796014;79;21041;-59
2021/07/08 07:19:10;;;;;;;13.40;10.60;;;;;;;25.35;64.96;96191.86;1795893;80;21044;-59
2021/07/08 07:21:37;;;;;;;14.47;11.65;;;;;;;25.44;64.00;96195.30;1795974;80;21076;-59
2021/07/08 07:24:04;;;;;;;12.10;11.00;;;;;;;25.48;62.99;96193.64;1796449;80;21016;-59
2021/07/08 07:26:31;;;;;;;12.75;11.55;;;;;;;25.58;63.54;96188.48;1796372;80;21484;-59
2021/07/08 07:28:57;;;;;;;12.80;11.48;;;;;;;25.71;63.58;96193.89;1795812;80;20990;-59
2021/07/08 07:31:24;;;;;;;12.60;11.25;;;;;;;25.84;63.47;96194.77;1796462;80;21460;-59
2021/07/08 07:33:50;;;;;;;13.65;11.25;;;;;;;25.93;62.57;96194.66;1796342;80;21012;-60
2021/07/08 07:36:17;;;;;;;13.05;11.40;;;;;;;25.98;62.65;96189.78;1795922;79;21021;-59
2021/07/08 07:38:44;;;;;;;12.63;10.82;;;;;;;26.02;61.84;96189.06;1796314;80;21041;-59
2021/07/08 07:41:10;;;;;;;12.82;11.53;;;;;;;26.07;63.17;96193.66;1796542;80;20993;-59
2021/07/08 07:43:37;;;;;;;11.33;10.35;;;;;;;26.17;62.94;96193.88;1795931;79;21071;-59
2021/07/08 07:46:04;;;;;;;12.35;11.15;;;;;;;26.25;62.32;96198.25;1796288;79;21001;-59
2021/07/08 07:48:30;;;;;;;12.20;10.82;;;;;;;26.32;62.38;96193.64;1795883;79;21507;-60
2021/07/08 07:50:57;;;;;;;12.73;11.63;;;;;;;26.41;61.75;96189.88;1795397;80;21055;-60
2021/07/08 07:53:23;;;;;;;11.88;10.78;;;;;;;26.48;60.41;96196.59;1787703;80;21013;-59
2021/07/08 07:55:50;;;;;;;12.55;11.20;;;;;;;26.50;60.58;96200.91;1787468;80;21391;-60
2021/07/08 07:58:18;;;;;;;11.70;10.50;;;;;;;26.56;59.84;96196.95;1787673;80;21017;-59
2021/07/08 08:00:45;;;;;;;12.45;10.72;;;;;;;26.59;58.72;96191.80;1787816;80;21460;-59
2021/07/08 08:03:11;;;;;;;12.33;11.12;;;;;;;26.69;59.93;96199.13;1787595;80;21096;-59
2021/07/08 08:05:49;;;;;;;11.73;10.58;;;;;;;26.80;59.37;96193.41;1787596;80;20953;-59
2021/07/08 08:08:27;;;;;;;12.30;11.08;;;;;;;26.88;58.23;96193.70;1786508;80;20994;-59
2021/07/08 08:10:56;;;;;;;13.98;11.50;;;;;;;26.97;59.57;96189.82;1787606;80;21014;-59
2021/07/08 08:13:24;;;;;;;12.58;11.18;;;;;;;27.12;59.95;96193.23;1787707;80;21013;-59
2021/07/08 08:15:53;;;;;;;12.95;11.30;;;;;;;27.16;59.58;96198.77;1787762;80;20978;-59
2021/07/08 08:18:22;;;;;;;16.30;12.30;;;;;;;27.24;59.30;96194.66;1787632;80;21065;-59
2021/07/08 08:20:50;;;;;;;12.70;11.45;;;;;;;27.29;59.26;96192.00;1787684;80;21009;-59
2021/07/08 08:23:17;;;;;;;13.22;11.85;;;;;;;27.38;59.06;96191.77;1751977;80;21032;-59
2021/07/08 08:25:44;;;;;;;15.18;12.03;;;;;;;27.47;61.23;96187.48;1787440;80;21586;-60
2021/07/08 08:28:11;;;;;;;13.60;12.30;;;;;;;27.46;59.65;96187.98;1787747;80;21057;-59
2021/07/08 08:30:38;;;;;;;14.85;11.50;;;;;;;27.56;60.49;96189.00;1787450;80;21001;-60
2021/07/08 08:33:05;;;;;;;13.40;12.13;;;;;;;27.66;61.60;96185.09;1787652;80;21052;-59
2021/07/08 08:35:33;;;;;;;16.37;12.53;;;;;;;27.77;60.57;96192.38;1782525;80;21064;-59
2021/07/08 08:38:00;;;;;;;12.37;11.20;;;;;;;27.89;60.93;96188.75;1787778;80;21571;-59
2021/07/08 08:40:27;;;;;;;16.27;12.43;;;;;;;27.95;59.40;96192.36;1787731;80;21045;-59
2021/07/08 08:42:54;;;;;;;11.93;10.72;;;;;;;27.94;58.38;96188.39;1787497;80;21006;-59
2021/07/08 08:45:20;;;;;;;13.53;10.48;;;;;;;28.05;57.12;96187.92;1787667;80;21036;-59
2021/07/08 08:48:08;;;;;;;13.03;11.08;;;;;;;28.11;57.78;96188.42;1787741;80;21591;-59
2021/07/08 08:50:42;;;;;;;13.10;11.65;;;;;;;28.19;58.10;96188.67;1787578;80;21036;-60
2021/07/08 08:53:10;;;;;;;12.75;11.53;;;;;;;28.21;57.07;96188.06;1779214;80;21496;-59
2021/07/08 08:55:41;;;;;;;12.88;11.68;;;;;;;28.34;58.38;96190.66;1777587;80;20966;-59
2021/07/08 08:58:12;;;;;;;13.60;11.90;;;;;;;28.37;57.44;96190.41;1777774;81;21575;-59
2021/07/08 09:00:46;;;;;;;13.70;12.30;;;;;;;28.37;56.66;96189.05;1777683;80;20966;-59
2021/07/08 09:03:26;;;;;;;18.85;12.33;;;;;;;28.47;58.01;96196.34;1777664;81;21089;-60
2021/07/08 09:06:10;;;;;;;13.58;12.15;;;;;;;28.60;58.95;96194.89;1777568;81;20986;-59
2021/07/08 09:08:40;;;;;;;13.40;11.90;;;;;;;28.73;57.36;96195.22;1777736;81;20982;-59
2021/07/08 09:11:20;;;;;;;13.98;12.50;;;;;;;28.79;57.80;96192.88;1777971;80;21462;-59
2021/07/08 09:14:06;;;;;;;13.13;11.83;;;;;;;28.93;57.48;96197.66;1777389;80;21079;-59
2021/07/08 09:16:39;;;;;;;13.75;12.35;;;;;;;29.00;57.25;96195.67;1777945;81;21064;-59
2021/07/08 09:19:10;;;;;;;13.85;12.35;;;;;;;29.02;56.27;96196.41;1777607;81;21022;-59
2021/07/08 09:21:52;;;;;;;14.65;11.68;;;;;;;29.10;56.00;96194.45;1777633;81;20997;-59
2021/07/08 09:24:32;;;;;;;13.20;11.60;;;;;;;29.16;55.65;96199.89;1777828;81;21094;-59
2021/07/08 09:27:09;;;;;;;12.50;10.95;;;;;;;29.18;56.13;96197.41;1777333;81;21514;-59
2021/07/08 09:29:45;;;;;;;14.58;12.18;;;;;;;29.34;56.88;96197.83;1777586;81;20978;-59
2021/07/08 09:32:22;;;;;;;12.43;11.22;;;;;;;29.36;56.73;96191.39;1777724;81;21069;-59
2021/07/08 09:34:53;;;;;;;12.82;11.50;;;;;;;29.42;56.20;96185.45;1777406;81;21049;-59
2021/07/08 09:37:29;;;;;;;12.75;11.33;;;;;;;29.57;58.32;96186.87;1777656;80;21013;-59
2021/07/08 09:40:04;;;;;;;13.25;11.00;;;;;;;29.74;56.56;96180.88;1777735;81;21001;-59
2021/07/08 09:42:42;;;;;;;13.22;11.85;;;;;;;29.88;55.66;96182.39;1777616;80;21049;-59
2021/07/08 09:45:16;;;;;;;13.30;10.78;;;;;;;29.96;55.71;96171.73;1777670;81;21081;-59
2021/07/08 09:47:45;;;;;;;14.38;11.03;;;;;;;30.01;53.85;96173.16;1777555;80;21086;-59
2021/07/08 09:50:26;;;;;;;14.35;11.00;;;;;;;30.20;55.12;96173.28;1777618;81;20986;-59
2021/07/08 09:53:08;;;;;;;12.03;10.18;;;;;;;30.37;54.39;96171.33;1777277;80;20986;-59
2021/07/08 09:56:03;;;;;;;12.87;10.30;;;;;;;30.40;53.52;96172.41;1777532;81;21022;-59
2021/07/08 09:58:29;;;;;;;12.25;9.85;;;;;;;30.48;53.49;96172.23;1777030;81;21061;-59
2021/07/08 10:00:57;;;;;;;11.05;9.73;;;;;;;30.69;54.56;96173.51;1777925;80;20946;-60
2021/07/08 10:03:24;;;;;;;10.65;9.55;;;;;;;30.59;50.89;96173.47;1777243;80;21021;-60
2021/07/08 10:05:51;;;;;;;13.85;10.50;;;;;;;30.57;50.88;96174.14;1777788;80;20962;-60
2021/07/08 10:08:21;;;;;;;11.18;10.03;;;;;;;30.55;52.34;96176.13;1777771;80;21529;-59
2021/07/08 10:10:48;;;;;;;11.35;10.20;;;;;;;30.68;52.82;96181.34;1777597;81;21491;-60
2021/07/08 10:13:18;;;;;;;13.38;10.10;;;;;;;30.80;51.04;96177.00;1777627;81;21026;-59
2021/07/08 10:15:47;;;;;;;13.38;10.90;;;;;;;30.95;52.14;96176.65;1777944;81;21033;-59
2021/07/08 10:18:14;;;;;;;12.73;10.63;;;;;;;30.99;50.45;96180.80;1777502;80;20998;-59
2021/07/08 10:20:43;;;;;;;11.57;10.00;;;;;;;30.75;51.53;96174.34;1777863;80;20998;-59
2021/07/08 10:23:11;;;;;;;14.73;10.55;;;;;;;30.51;51.38;96176.03;1777900;80;21439;-59
2021/07/08 10:25:38;;;;;;;11.43;10.10;;;;;;;30.63;53.14;96179.02;1777616;81;21037;-60
2021/07/08 10:28:08;;;;;;;14.18;10.28;;;;;;;30.87;51.84;96171.02;1778086;81;20977;-59
2021/07/08 10:30:36;;;;;;;13.48;10.60;;;;;;;31.16;52.49;96173.30;1777813;81;21056;-60
2021/07/08 10:33:02;;;;;;;11.50;10.38;;;;;;;31.38;50.37;96170.85;1777973;81;20950;-59
2021/07/08 10:35:42;;;;;;;11.70;9.53;;;;;;;31.54;50.60;96171.63;1777696;81;20991;-60
2021/07/08 10:38:31;;;;;;;11.43;10.20;;;;;;;31.54;51.16;96170.78;1777728;81;20990;-59
2021/07/08 10:41:01;;;;;;;11.38;9.30;;;;;;;31.83;51.54;96169.41;1777617;80;21530;-59
2021/07/08 10:43:43;;;;;;;10.82;9.73;;;;;;;32.08;49.54;96169.29;1734370;81;21021;-59
2021/07/08 10:46:13;;;;;;;11.43;9.08;;;;;;;32.29;47.76;96166.38;1777817;80;21057;-59
2021/07/08 10:48:43;;;;;;;10.13;9.13;;;;;;;32.60;48.44;96175.19;1777874;81;21472;-59
2021/07/08 10:51:36;;;;;;;11.75;8.30;;;;;;;32.74;46.28;96162.92;1777479;80;21057;-60
2021/07/08 10:54:30;;;;;;;9.35;8.00;;;;;;;32.82;44.43;96164.89;1777769;80;20970;-60
2021/07/08 10:57:02;;;;;;;10.72;8.20;;;;;;;32.80;45.92;96166.40;1777557;81;21104;-60
2021/07/08 10:59:45;;;;;;;;;;;;;;;32.90;46.14;96162.25;1780308;81;21456;-60
2021/07/08 11:02:31;;;;;;;8.83;7.92;;;;;;;32.85;45.11;96164.58;1777914;80;20161;-59
2021/07/08 11:04:58;;;;;;;9.25;8.35;;;;;;;32.61;45.67;96165.13;1777392;81;21092;-63
2021/07/08 11:07:26;;;;;;;9.78;8.03;;;;;;;32.64;45.36;96160.75;1777736;81;21050;-59
2021/07/08 11:10:00;;;;;;;9.10;8.05;;;;;;;32.73;44.07;96163.91;1778082;81;21052;-59
2021/07/08 11:12:39;;;;;;;8.98;8.00;;;;;;;32.84;45.65;96165.09;1777924;81;21502;-59
2021/07/08 11:15:08;;;;;;;8.45;7.65;;;;;;;32.92;45.03;96171.16;1777921;81;21508;-60
2021/07/08 11:17:46;;;;;;;9.38;7.95;;;;;;;33.06;44.03;96168.44;1777972;81;21048;-60
2021/07/08 11:20:31;;;;;;;10.65;7.50;;;;;;;33.01;42.74;96160.66;1777469;80;21006;-60
2021/07/08 11:23:38;;;;;;;9.53;7.75;;;;;;;33.07;43.89;96164.70;1777569;81;21061;-61
2021/07/08 11:26:07;;;;;;;8.98;8.03;;;;;;;32.93;44.67;96170.98;1777774;81;21029;-60
2021/07/08 11:28:34;;;;;;;17.00;8.58;;;;;;;32.59;44.06;96163.07;1777858;80;21054;-60
2021/07/08 11:31:04;;;;;;;8.98;8.08;;;;;;;32.18;44.85;96170.64;1777992;80;20974;-59
2021/07/08 11:33:37;;;;;;;8.88;7.92;;;;;;;31.77;45.58;96168.09;1777436;81;21022;-59